sensor_id;sensor_type;location;lat;lon;timestamp;P1;durP1;ratioP1;P2;durP2;ratioP2
42834;SDS011;29335;50.526;30.458;2022-08-21T00:01:26;25.55;;;9.07;;
42834;SDS011;29335;50.526;30.458;2022-08-21T00:03:53;25.92;;;9.75;;
42834;SDS011;29335;50.526;30.458;2022-08-21T00:06:19;26.40;;;10.10;;
42834;SDS011;29335;50.526;30.458;2022-08-21T00:08:46;27.77;;;10.18;;
42834;SDS011;29335;50.526;30.458;2022-08-21T00:11:12;34.45;;;10.30;;
42834;SDS011;29335;50.526;30.458;2022-08-21T00:13:39;24.08;;;9.25;;
42834;SDS011;29335;50.526;30.458;2022-08-21T00:16:04;28.98;;;10.18;;
42834;SDS011;29335;50.526;30.458;2022-08-21T00:18:30;27.83;;;10.60;;
42834;SDS011;29335;50.526;30.458;2022-08-21T00:20:56;30.85;;;10.18;;
42834;SDS011;29335;50.526;30.458;2022-08-21T00:23:22;25.00;;;9.52;;
42834;SDS011;29335;50.526;30.458;2022-08-21T00:25:47;30.83;;;10.25;;
42834;SDS011;29335;50.526;30.458;2022-08-21T00:28:14;28.58;;;10.85;;
42834;SDS011;29335;50.526;30.458;2022-08-21T00:30:40;28.55;;;9.30;;
42834;SDS011;29335;50.526;30.458;2022-08-21T00:33:06;25.92;;;9.88;;
42834;SDS011;29335;50.526;30.458;2022-08-21T00:35:34;29.42;;;10.60;;
42834;SDS011;29335;50.526;30.458;2022-08-21T00:38:02;27.02;;;9.90;;
42834;SDS011;29335;50.526;30.458;2022-08-21T00:40:33;28.13;;;9.98;;
42834;SDS011;29335;50.526;30.458;2022-08-21T00:43:02;24.95;;;9.75;;
42834;SDS011;29335;50.526;30.458;2022-08-21T00:45:28;21.63;;;9.60;;
42834;SDS011;29335;50.526;30.458;2022-08-21T00:47:55;29.27;;;9.95;;
42834;SDS011;29335;50.526;30.458;2022-08-21T00:50:21;31.65;;;10.02;;
42834;SDS011;29335;50.526;30.458;2022-08-21T00:52:49;30.35;;;10.57;;
42834;SDS011;29335;50.526;30.458;2022-08-21T00:55:16;29.58;;;10.07;;
42834;SDS011;29335;50.526;30.458;2022-08-21T00:57:44;23.00;;;10.07;;
42834;SDS011;29335;50.526;30.458;2022-08-21T01:02:42;28.63;;;9.57;;
42834;SDS011;29335;50.526;30.458;2022-08-21T01:05:08;25.20;;;9.23;;
42834;SDS011;29335;50.526;30.458;2022-08-21T01:07:35;28.55;;;10.07;;
42834;SDS011;29335;50.526;30.458;2022-08-21T01:10:02;25.77;;;10.35;;
42834;SDS011;29335;50.526;30.458;2022-08-21T01:12:29;30.40;;;9.20;;
42834;SDS011;29335;50.526;30.458;2022-08-21T01:14:54;26.08;;;9.25;;
42834;SDS011;29335;50.526;30.458;2022-08-21T01:17:20;23.02;;;9.43;;
42834;SDS011;29335;50.526;30.458;2022-08-21T01:19:46;33.00;;;9.75;;
42834;SDS011;29335;50.526;30.458;2022-08-21T01:22:12;28.83;;;9.63;;
42834;SDS011;29335;50.526;30.458;2022-08-21T01:24:38;26.38;;;9.48;;
42834;SDS011;29335;50.526;30.458;2022-08-21T01:27:04;24.67;;;9.77;;
42834;SDS011;29335;50.526;30.458;2022-08-21T01:29:44;28.25;;;10.00;;
42834;SDS011;29335;50.526;30.458;2022-08-21T01:32:16;25.58;;;10.05;;
42834;SDS011;29335;50.526;30.458;2022-08-21T01:34:45;25.08;;;9.18;;
42834;SDS011;29335;50.526;30.458;2022-08-21T01:37:13;29.08;;;9.40;;
42834;SDS011;29335;50.526;30.458;2022-08-21T01:39:39;29.63;;;9.32;;
42834;SDS011;29335;50.526;30.458;2022-08-21T01:42:06;28.25;;;9.10;;
42834;SDS011;29335;50.526;30.458;2022-08-21T01:44:32;27.83;;;9.98;;
42834;SDS011;29335;50.526;30.458;2022-08-21T01:46:59;29.23;;;8.93;;
42834;SDS011;29335;50.526;30.458;2022-08-21T01:49:26;29.52;;;9.02;;
42834;SDS011;29335;50.526;30.458;2022-08-21T01:51:52;29.67;;;9.27;;
42834;SDS011;29335;50.526;30.458;2022-08-21T01:54:19;24.80;;;9.95;;
42834;SDS011;29335;50.526;30.458;2022-08-21T01:56:45;25.08;;;9.52;;
42834;SDS011;29335;50.526;30.458;2022-08-21T01:59:13;30.40;;;10.13;;
42834;SDS011;29335;50.526;30.458;2022-08-21T02:01:39;31.35;;;10.23;;
42834;SDS011;29335;50.526;30.458;2022-08-21T02:04:05;26.33;;;8.82;;
42834;SDS011;29335;50.526;30.458;2022-08-21T02:06:32;31.42;;;10.23;;
42834;SDS011;29335;50.526;30.458;2022-08-21T02:08:59;32.10;;;9.13;;
42834;SDS011;29335;50.526;30.458;2022-08-21T02:11:25;26.27;;;9.82;;
42834;SDS011;29335;50.526;30.458;2022-08-21T02:13:51;26.98;;;9.05;;
42834;SDS011;29335;50.526;30.458;2022-08-21T02:16:16;35.38;;;9.52;;
42834;SDS011;29335;50.526;30.458;2022-08-21T02:18:42;24.50;;;9.20;;
42834;SDS011;29335;50.526;30.458;2022-08-21T02:21:08;31.33;;;9.30;;
42834;SDS011;29335;50.526;30.458;2022-08-21T02:23:33;23.10;;;9.50;;
42834;SDS011;29335;50.526;30.458;2022-08-21T02:26:00;23.00;;;8.50;;
42834;SDS011;29335;50.526;30.458;2022-08-21T02:28:27;28.58;;;9.38;;
42834;SDS011;29335;50.526;30.458;2022-08-21T02:30:53;26.67;;;8.68;;
42834;SDS011;29335;50.526;30.458;2022-08-21T02:33:21;25.55;;;8.60;;
42834;SDS011;29335;50.526;30.458;2022-08-21T02:35:47;23.23;;;9.18;;
42834;SDS011;29335;50.526;30.458;2022-08-21T02:38:19;29.98;;;9.07;;
42834;SDS011;29335;50.526;30.458;2022-08-21T02:40:48;31.70;;;9.38;;
42834;SDS011;29335;50.526;30.458;2022-08-21T02:43:15;22.73;;;8.88;;
42834;SDS011;29335;50.526;30.458;2022-08-21T02:45:41;22.90;;;8.75;;
42834;SDS011;29335;50.526;30.458;2022-08-21T02:48:08;30.73;;;8.90;;
42834;SDS011;29335;50.526;30.458;2022-08-21T02:50:37;28.95;;;9.25;;
42834;SDS011;29335;50.526;30.458;2022-08-21T02:53:05;28.33;;;9.25;;
42834;SDS011;29335;50.526;30.458;2022-08-21T02:55:33;28.50;;;9.02;;
42834;SDS011;29335;50.526;30.458;2022-08-21T02:58:00;27.05;;;8.95;;
42834;SDS011;29335;50.526;30.458;2022-08-21T03:00:27;21.52;;;8.63;;
42834;SDS011;29335;50.526;30.458;2022-08-21T03:02:54;26.98;;;9.15;;
42834;SDS011;29335;50.526;30.458;2022-08-21T03:05:21;25.75;;;8.73;;
42834;SDS011;29335;50.526;30.458;2022-08-21T03:07:47;26.90;;;9.27;;
42834;SDS011;29335;50.526;30.458;2022-08-21T03:10:14;24.60;;;8.68;;
42834;SDS011;29335;50.526;30.458;2022-08-21T03:12:40;27.25;;;8.88;;
42834;SDS011;29335;50.526;30.458;2022-08-21T03:15:08;24.52;;;9.20;;
42834;SDS011;29335;50.526;30.458;2022-08-21T03:17:36;23.42;;;8.50;;
42834;SDS011;29335;50.526;30.458;2022-08-21T03:20:03;21.75;;;7.88;;
42834;SDS011;29335;50.526;30.458;2022-08-21T03:22:30;21.52;;;8.73;;
42834;SDS011;29335;50.526;30.458;2022-08-21T03:24:55;29.10;;;8.05;;
42834;SDS011;29335;50.526;30.458;2022-08-21T03:27:22;23.15;;;8.50;;
42834;SDS011;29335;50.526;30.458;2022-08-21T03:29:50;26.02;;;7.80;;
42834;SDS011;29335;50.526;30.458;2022-08-21T03:32:16;22.05;;;7.95;;
42834;SDS011;29335;50.526;30.458;2022-08-21T03:34:41;19.92;;;7.78;;
42834;SDS011;29335;50.526;30.458;2022-08-21T03:37:07;22.98;;;8.73;;
42834;SDS011;29335;50.526;30.458;2022-08-21T03:39:33;26.63;;;8.38;;
42834;SDS011;29335;50.526;30.458;2022-08-21T03:41:59;24.05;;;8.27;;
42834;SDS011;29335;50.526;30.458;2022-08-21T03:44:26;25.63;;;7.50;;
42834;SDS011;29335;50.526;30.458;2022-08-21T03:46:53;21.63;;;7.78;;
42834;SDS011;29335;50.526;30.458;2022-08-21T03:49:20;24.80;;;7.20;;
42834;SDS011;29335;50.526;30.458;2022-08-21T03:51:46;24.40;;;7.35;;
42834;SDS011;29335;50.526;30.458;2022-08-21T03:54:11;24.98;;;7.88;;
42834;SDS011;29335;50.526;30.458;2022-08-21T03:56:37;20.02;;;7.88;;
42834;SDS011;29335;50.526;30.458;2022-08-21T03:59:04;23.58;;;7.22;;
42834;SDS011;29335;50.526;30.458;2022-08-21T04:01:31;25.02;;;7.80;;
42834;SDS011;29335;50.526;30.458;2022-08-21T04:03:56;20.10;;;7.13;;
42834;SDS011;29335;50.526;30.458;2022-08-21T04:06:22;23.00;;;7.88;;
42834;SDS011;29335;50.526;30.458;2022-08-21T04:08:48;21.20;;;7.60;;
42834;SDS011;29335;50.526;30.458;2022-08-21T04:11:14;26.85;;;7.45;;
42834;SDS011;29335;50.526;30.458;2022-08-21T04:13:40;21.00;;;7.63;;
42834;SDS011;29335;50.526;30.458;2022-08-21T04:16:06;25.60;;;7.10;;
42834;SDS011;29335;50.526;30.458;2022-08-21T04:18:32;20.02;;;6.53;;
42834;SDS011;29335;50.526;30.458;2022-08-21T04:20:58;22.75;;;6.82;;
42834;SDS011;29335;50.526;30.458;2022-08-21T04:23:26;22.80;;;7.10;;
42834;SDS011;29335;50.526;30.458;2022-08-21T04:25:53;28.10;;;7.07;;
42834;SDS011;29335;50.526;30.458;2022-08-21T04:28:20;27.27;;;7.47;;
42834;SDS011;29335;50.526;30.458;2022-08-21T04:30:47;17.33;;;6.35;;
42834;SDS011;29335;50.526;30.458;2022-08-21T04:33:13;29.88;;;7.13;;
42834;SDS011;29335;50.526;30.458;2022-08-21T04:35:39;20.70;;;5.93;;
42834;SDS011;29335;50.526;30.458;2022-08-21T04:38:06;29.95;;;7.13;;
42834;SDS011;29335;50.526;30.458;2022-08-21T04:40:32;29.08;;;6.35;;
42834;SDS011;29335;50.526;30.458;2022-08-21T04:43:00;27.10;;;6.97;;
42834;SDS011;29335;50.526;30.458;2022-08-21T04:45:29;29.55;;;7.20;;
42834;SDS011;29335;50.526;30.458;2022-08-21T04:47:58;21.45;;;6.40;;
42834;SDS011;29335;50.526;30.458;2022-08-21T04:53:22;22.90;;;5.97;;
42834;SDS011;29335;50.526;30.458;2022-08-21T04:55:53;18.45;;;7.05;;
42834;SDS011;29335;50.526;30.458;2022-08-21T04:58:21;19.63;;;6.72;;
42834;SDS011;29335;50.526;30.458;2022-08-21T05:00:51;23.52;;;6.43;;
42834;SDS011;29335;50.526;30.458;2022-08-21T05:03:18;25.02;;;6.28;;
42834;SDS011;29335;50.526;30.458;2022-08-21T05:05:44;24.80;;;7.40;;
42834;SDS011;29335;50.526;30.458;2022-08-21T05:08:11;20.30;;;5.88;;
42834;SDS011;29335;50.526;30.458;2022-08-21T05:10:40;27.20;;;6.68;;
42834;SDS011;29335;50.526;30.458;2022-08-21T05:13:08;16.48;;;6.15;;
42834;SDS011;29335;50.526;30.458;2022-08-21T05:15:34;21.08;;;6.45;;
42834;SDS011;29335;50.526;30.458;2022-08-21T05:18:00;24.60;;;5.85;;
42834;SDS011;29335;50.526;30.458;2022-08-21T05:20:25;18.48;;;5.55;;
42834;SDS011;29335;50.526;30.458;2022-08-21T05:22:51;25.80;;;6.38;;
42834;SDS011;29335;50.526;30.458;2022-08-21T05:25:17;26.20;;;5.68;;
42834;SDS011;29335;50.526;30.458;2022-08-21T05:27:42;16.58;;;5.20;;
42834;SDS011;29335;50.526;30.458;2022-08-21T05:30:09;30.27;;;6.43;;
42834;SDS011;29335;50.526;30.458;2022-08-21T05:32:35;20.63;;;6.30;;
42834;SDS011;29335;50.526;30.458;2022-08-21T05:35:02;24.95;;;5.63;;
42834;SDS011;29335;50.526;30.458;2022-08-21T05:37:31;22.25;;;5.90;;
42834;SDS011;29335;50.526;30.458;2022-08-21T05:39:58;23.10;;;5.57;;
42834;SDS011;29335;50.526;30.458;2022-08-21T05:42:24;32.58;;;14.93;;
42834;SDS011;29335;50.526;30.458;2022-08-21T05:44:50;17.90;;;7.22;;
42834;SDS011;29335;50.526;30.458;2022-08-21T05:47:16;22.70;;;6.20;;
42834;SDS011;29335;50.526;30.458;2022-08-21T05:49:41;22.15;;;5.55;;
42834;SDS011;29335;50.526;30.458;2022-08-21T05:52:07;28.48;;;6.10;;
42834;SDS011;29335;50.526;30.458;2022-08-21T05:54:33;25.48;;;5.55;;
42834;SDS011;29335;50.526;30.458;2022-08-21T05:57:00;21.33;;;5.22;;
42834;SDS011;29335;50.526;30.458;2022-08-21T05:59:26;23.52;;;6.90;;
42834;SDS011;29335;50.526;30.458;2022-08-21T06:01:52;25.63;;;6.78;;
42834;SDS011;29335;50.526;30.458;2022-08-21T06:04:18;23.83;;;6.57;;
42834;SDS011;29335;50.526;30.458;2022-08-21T06:06:44;25.15;;;6.38;;
42834;SDS011;29335;50.526;30.458;2022-08-21T06:09:09;31.52;;;6.35;;
42834;SDS011;29335;50.526;30.458;2022-08-21T06:11:35;24.15;;;6.70;;
42834;SDS011;29335;50.526;30.458;2022-08-21T06:14:01;24.35;;;6.40;;
42834;SDS011;29335;50.526;30.458;2022-08-21T06:16:27;21.52;;;6.18;;
42834;SDS011;29335;50.526;30.458;2022-08-21T06:18:53;28.60;;;7.45;;
42834;SDS011;29335;50.526;30.458;2022-08-21T06:21:18;28.08;;;6.65;;
42834;SDS011;29335;50.526;30.458;2022-08-21T06:23:44;23.48;;;6.68;;
42834;SDS011;29335;50.526;30.458;2022-08-21T06:26:10;21.30;;;6.80;;
42834;SDS011;29335;50.526;30.458;2022-08-21T06:28:37;20.00;;;5.95;;
42834;SDS011;29335;50.526;30.458;2022-08-21T06:31:10;30.10;;;7.63;;
42834;SDS011;29335;50.526;30.458;2022-08-21T06:33:40;23.35;;;6.35;;
42834;SDS011;29335;50.526;30.458;2022-08-21T06:36:05;23.10;;;6.13;;
42834;SDS011;29335;50.526;30.458;2022-08-21T06:38:31;23.10;;;6.45;;
42834;SDS011;29335;50.526;30.458;2022-08-21T06:40:57;19.13;;;5.60;;
42834;SDS011;29335;50.526;30.458;2022-08-21T06:43:23;23.73;;;6.07;;
42834;SDS011;29335;50.526;30.458;2022-08-21T06:45:48;21.08;;;6.00;;
42834;SDS011;29335;50.526;30.458;2022-08-21T06:48:14;19.50;;;6.68;;
42834;SDS011;29335;50.526;30.458;2022-08-21T06:50:40;23.75;;;6.45;;
42834;SDS011;29335;50.526;30.458;2022-08-21T06:53:11;23.23;;;6.20;;
42834;SDS011;29335;50.526;30.458;2022-08-21T06:55:38;25.02;;;6.75;;
42834;SDS011;29335;50.526;30.458;2022-08-21T06:58:05;29.83;;;7.10;;
42834;SDS011;29335;50.526;30.458;2022-08-21T07:00:31;24.17;;;6.72;;
42834;SDS011;29335;50.526;30.458;2022-08-21T07:02:57;17.65;;;5.60;;
42834;SDS011;29335;50.526;30.458;2022-08-21T07:05:27;21.13;;;6.32;;
42834;SDS011;29335;50.526;30.458;2022-08-21T07:07:54;22.58;;;6.30;;
42834;SDS011;29335;50.526;30.458;2022-08-21T07:10:20;25.90;;;6.57;;
42834;SDS011;29335;50.526;30.458;2022-08-21T07:12:45;19.85;;;6.05;;
42834;SDS011;29335;50.526;30.458;2022-08-21T07:15:11;24.60;;;6.40;;
42834;SDS011;29335;50.526;30.458;2022-08-21T07:17:36;27.83;;;6.28;;
42834;SDS011;29335;50.526;30.458;2022-08-21T07:20:03;26.08;;;6.53;;
42834;SDS011;29335;50.526;30.458;2022-08-21T07:22:30;21.33;;;6.13;;
42834;SDS011;29335;50.526;30.458;2022-08-21T07:24:56;21.58;;;6.13;;
42834;SDS011;29335;50.526;30.458;2022-08-21T07:27:21;24.67;;;6.90;;
42834;SDS011;29335;50.526;30.458;2022-08-21T07:29:47;23.88;;;5.97;;
42834;SDS011;29335;50.526;30.458;2022-08-21T07:32:13;19.48;;;6.30;;
42834;SDS011;29335;50.526;30.458;2022-08-21T07:34:40;18.42;;;5.65;;
42834;SDS011;29335;50.526;30.458;2022-08-21T07:37:05;22.27;;;6.88;;
42834;SDS011;29335;50.526;30.458;2022-08-21T07:39:31;23.77;;;6.47;;
42834;SDS011;29335;50.526;30.458;2022-08-21T07:41:57;23.42;;;6.95;;
42834;SDS011;29335;50.526;30.458;2022-08-21T07:44:22;23.80;;;6.82;;
42834;SDS011;29335;50.526;30.458;2022-08-21T07:46:48;19.08;;;6.32;;
42834;SDS011;29335;50.526;30.458;2022-08-21T07:49:14;24.20;;;6.60;;
42834;SDS011;29335;50.526;30.458;2022-08-21T07:51:39;24.38;;;6.28;;
42834;SDS011;29335;50.526;30.458;2022-08-21T07:54:05;20.10;;;6.28;;
42834;SDS011;29335;50.526;30.458;2022-08-21T07:56:30;28.92;;;7.03;;
42834;SDS011;29335;50.526;30.458;2022-08-21T07:58:57;22.08;;;5.75;;
42834;SDS011;29335;50.526;30.458;2022-08-21T08:01:23;23.42;;;6.68;;
42834;SDS011;29335;50.526;30.458;2022-08-21T08:03:49;26.13;;;6.20;;
42834;SDS011;29335;50.526;30.458;2022-08-21T08:06:15;28.20;;;7.05;;
42834;SDS011;29335;50.526;30.458;2022-08-21T08:08:43;23.58;;;5.90;;
42834;SDS011;29335;50.526;30.458;2022-08-21T08:11:09;25.10;;;7.18;;
42834;SDS011;29335;50.526;30.458;2022-08-21T08:13:39;24.40;;;6.82;;
42834;SDS011;29335;50.526;30.458;2022-08-21T08:16:07;25.42;;;6.18;;
42834;SDS011;29335;50.526;30.458;2022-08-21T08:18:33;26.55;;;6.38;;
42834;SDS011;29335;50.526;30.458;2022-08-21T08:20:58;22.17;;;6.80;;
42834;SDS011;29335;50.526;30.458;2022-08-21T08:23:24;30.95;;;6.93;;
42834;SDS011;29335;50.526;30.458;2022-08-21T08:25:50;27.83;;;6.22;;
42834;SDS011;29335;50.526;30.458;2022-08-21T08:28:16;28.35;;;7.28;;
42834;SDS011;29335;50.526;30.458;2022-08-21T08:30:42;32.28;;;7.05;;
42834;SDS011;29335;50.526;30.458;2022-08-21T08:33:07;31.55;;;7.32;;
42834;SDS011;29335;50.526;30.458;2022-08-21T08:35:33;29.77;;;7.22;;
42834;SDS011;29335;50.526;30.458;2022-08-21T08:37:59;28.58;;;6.70;;
42834;SDS011;29335;50.526;30.458;2022-08-21T08:40:31;20.83;;;6.15;;
42834;SDS011;29335;50.526;30.458;2022-08-21T08:43:04;27.02;;;7.03;;
42834;SDS011;29335;50.526;30.458;2022-08-21T08:45:31;32.75;;;6.53;;
42834;SDS011;29335;50.526;30.458;2022-08-21T08:48:03;30.55;;;6.28;;
42834;SDS011;29335;50.526;30.458;2022-08-21T08:53:10;29.83;;;6.32;;
42834;SDS011;29335;50.526;30.458;2022-08-21T08:55:40;26.67;;;6.40;;
42834;SDS011;29335;50.526;30.458;2022-08-21T08:58:09;24.13;;;6.18;;
42834;SDS011;29335;50.526;30.458;2022-08-21T09:00:42;26.23;;;6.75;;
42834;SDS011;29335;50.526;30.458;2022-08-21T09:03:09;23.73;;;6.93;;
42834;SDS011;29335;50.526;30.458;2022-08-21T09:08:27;23.73;;;6.00;;
42834;SDS011;29335;50.526;30.458;2022-08-21T09:11:32;23.90;;;6.10;;
42834;SDS011;29335;50.526;30.458;2022-08-21T09:20:32;28.88;;;6.28;;
42834;SDS011;29335;50.526;30.458;2022-08-21T09:25:58;26.52;;;5.68;;
42834;SDS011;29335;50.526;30.458;2022-08-21T09:28:38;25.17;;;6.20;;
42834;SDS011;29335;50.526;30.458;2022-08-21T09:31:07;22.92;;;6.10;;
42834;SDS011;29335;50.526;30.458;2022-08-21T09:33:40;24.60;;;6.00;;
42834;SDS011;29335;50.526;30.458;2022-08-21T09:36:06;31.15;;;6.15;;
42834;SDS011;29335;50.526;30.458;2022-08-21T09:38:36;26.23;;;5.82;;
42834;SDS011;29335;50.526;30.458;2022-08-21T09:41:07;25.23;;;5.75;;
42834;SDS011;29335;50.526;30.458;2022-08-21T09:43:34;24.90;;;6.22;;
42834;SDS011;29335;50.526;30.458;2022-08-21T09:46:12;25.23;;;5.82;;
42834;SDS011;29335;50.526;30.458;2022-08-21T09:48:47;21.85;;;5.25;;
42834;SDS011;29335;50.526;30.458;2022-08-21T09:51:16;18.95;;;4.97;;
42834;SDS011;29335;50.526;30.458;2022-08-21T09:56:31;19.60;;;4.93;;
42834;SDS011;29335;50.526;30.458;2022-08-21T09:59:39;22.33;;;4.90;;
42834;SDS011;29335;50.526;30.458;2022-08-21T10:04:54;24.30;;;5.43;;
42834;SDS011;29335;50.526;30.458;2022-08-21T10:10:05;18.92;;;4.53;;
42834;SDS011;29335;50.526;30.458;2022-08-21T10:18:18;24.10;;;4.90;;
42834;SDS011;29335;50.526;30.458;2022-08-21T10:26:09;17.67;;;4.25;;
42834;SDS011;29335;50.526;30.458;2022-08-21T10:28:51;21.67;;;4.47;;
42834;SDS011;29335;50.526;30.458;2022-08-21T10:31:34;22.75;;;4.75;;
42834;SDS011;29335;50.526;30.458;2022-08-21T10:42:41;19.10;;;4.32;;
42834;SDS011;29335;50.526;30.458;2022-08-21T10:47:52;22.05;;;4.72;;
42834;SDS011;29335;50.526;30.458;2022-08-21T10:50:40;30.70;;;4.93;;
42834;SDS011;29335;50.526;30.458;2022-08-21T10:56:02;26.70;;;5.13;;
42834;SDS011;29335;50.526;30.458;2022-08-21T11:02:31;29.75;;;5.15;;
42834;SDS011;29335;50.526;30.458;2022-08-21T11:07:29;25.60;;;4.85;;
42834;SDS011;29335;50.526;30.458;2022-08-21T11:10:10;19.67;;;4.72;;
42834;SDS011;29335;50.526;30.458;2022-08-21T11:12:44;18.48;;;4.78;;
42834;SDS011;29335;50.526;30.458;2022-08-21T11:21:32;23.85;;;5.22;;
42834;SDS011;29335;50.526;30.458;2022-08-21T11:23:59;23.48;;;5.07;;
42834;SDS011;29335;50.526;30.458;2022-08-21T11:29:24;20.75;;;4.22;;
42834;SDS011;29335;50.526;30.458;2022-08-21T11:34:38;19.75;;;4.95;;
42834;SDS011;29335;50.526;30.458;2022-08-21T11:42:56;23.13;;;5.30;;
42834;SDS011;29335;50.526;30.458;2022-08-21T11:45:46;27.17;;;5.13;;
42834;SDS011;29335;50.526;30.458;2022-08-21T11:51:13;24.58;;;4.93;;
42834;SDS011;29335;50.526;30.458;2022-08-21T11:56:28;28.88;;;4.68;;
42834;SDS011;29335;50.526;30.458;2022-08-21T11:59:02;23.77;;;5.28;;
42834;SDS011;29335;50.526;30.458;2022-08-21T12:01:35;26.10;;;4.88;;
42834;SDS011;29335;50.526;30.458;2022-08-21T12:04:10;27.65;;;5.43;;
42834;SDS011;29335;50.526;30.458;2022-08-21T12:06:43;27.17;;;5.07;;
42834;SDS011;29335;50.526;30.458;2022-08-21T12:09:11;18.90;;;4.47;;
42834;SDS011;29335;50.526;30.458;2022-08-21T12:12:02;27.25;;;5.15;;
42834;SDS011;29335;50.526;30.458;2022-08-21T12:14:49;22.30;;;5.00;;
42834;SDS011;29335;50.526;30.458;2022-08-21T12:17:20;22.55;;;5.50;;
42834;SDS011;29335;50.526;30.458;2022-08-21T12:20:14;25.15;;;5.25;;
42834;SDS011;29335;50.526;30.458;2022-08-21T12:22:54;28.38;;;5.85;;
42834;SDS011;29335;50.526;30.458;2022-08-21T12:25:36;21.80;;;4.72;;
42834;SDS011;29335;50.526;30.458;2022-08-21T12:28:07;21.02;;;4.47;;
42834;SDS011;29335;50.526;30.458;2022-08-21T12:30:36;25.90;;;5.65;;
42834;SDS011;29335;50.526;30.458;2022-08-21T12:36:11;19.60;;;4.45;;
42834;SDS011;29335;50.526;30.458;2022-08-21T12:41:26;22.30;;;5.28;;
42834;SDS011;29335;50.526;30.458;2022-08-21T12:49:13;21.02;;;4.20;;
42834;SDS011;29335;50.526;30.458;2022-08-21T12:54:22;15.85;;;4.47;;
42834;SDS011;29335;50.526;30.458;2022-08-21T12:57:03;26.47;;;5.57;;
42834;SDS011;29335;50.526;30.458;2022-08-21T12:59:31;17.55;;;4.68;;
42834;SDS011;29335;50.526;30.458;2022-08-21T13:02:03;30.55;;;5.63;;
42834;SDS011;29335;50.526;30.458;2022-08-21T13:04:36;18.60;;;4.15;;
42834;SDS011;29335;50.526;30.458;2022-08-21T13:07:09;19.38;;;4.57;;
42834;SDS011;29335;50.526;30.458;2022-08-21T13:09:40;26.40;;;5.38;;
42834;SDS011;29335;50.526;30.458;2022-08-21T13:12:11;21.52;;;4.80;;
42834;SDS011;29335;50.526;30.458;2022-08-21T13:14:39;21.00;;;4.80;;
42834;SDS011;29335;50.526;30.458;2022-08-21T13:17:06;18.75;;;4.25;;
42834;SDS011;29335;50.526;30.458;2022-08-21T13:19:33;19.75;;;4.57;;
42834;SDS011;29335;50.526;30.458;2022-08-21T13:21:59;24.40;;;4.97;;
42834;SDS011;29335;50.526;30.458;2022-08-21T13:24:30;24.08;;;5.53;;
42834;SDS011;29335;50.526;30.458;2022-08-21T13:27:00;22.42;;;4.80;;
42834;SDS011;29335;50.526;30.458;2022-08-21T13:29:28;22.25;;;4.93;;
42834;SDS011;29335;50.526;30.458;2022-08-21T13:31:57;21.48;;;4.68;;
42834;SDS011;29335;50.526;30.458;2022-08-21T13:34:29;20.08;;;5.40;;
42834;SDS011;29335;50.526;30.458;2022-08-21T13:36:59;17.27;;;4.82;;
42834;SDS011;29335;50.526;30.458;2022-08-21T13:39:27;23.58;;;4.90;;
42834;SDS011;29335;50.526;30.458;2022-08-21T13:41:54;22.88;;;4.80;;
42834;SDS011;29335;50.526;30.458;2022-08-21T13:44:34;20.35;;;4.75;;
42834;SDS011;29335;50.526;30.458;2022-08-21T13:47:05;21.08;;;4.68;;
42834;SDS011;29335;50.526;30.458;2022-08-21T13:49:32;16.83;;;4.00;;
42834;SDS011;29335;50.526;30.458;2022-08-21T13:52:00;18.15;;;4.63;;
42834;SDS011;29335;50.526;30.458;2022-08-21T13:54:36;18.58;;;4.70;;
42834;SDS011;29335;50.526;30.458;2022-08-21T13:57:03;21.73;;;4.60;;
42834;SDS011;29335;50.526;30.458;2022-08-21T13:59:33;16.23;;;3.80;;
42834;SDS011;29335;50.526;30.458;2022-08-21T14:02:01;21.25;;;5.18;;
42834;SDS011;29335;50.526;30.458;2022-08-21T14:04:44;21.88;;;5.38;;
42834;SDS011;29335;50.526;30.458;2022-08-21T14:07:22;14.88;;;4.68;;
42834;SDS011;29335;50.526;30.458;2022-08-21T14:09:52;18.85;;;5.60;;
42834;SDS011;29335;50.526;30.458;2022-08-21T14:12:24;22.63;;;4.97;;
42834;SDS011;29335;50.526;30.458;2022-08-21T14:14:54;24.40;;;4.85;;
42834;SDS011;29335;50.526;30.458;2022-08-21T14:17:26;23.67;;;4.63;;
42834;SDS011;29335;50.526;30.458;2022-08-21T14:20:08;29.10;;;5.70;;
42834;SDS011;29335;50.526;30.458;2022-08-21T14:22:49;19.83;;;4.78;;
42834;SDS011;29335;50.526;30.458;2022-08-21T14:32:43;21.33;;;5.15;;
42834;SDS011;29335;50.526;30.458;2022-08-21T14:35:12;19.35;;;5.07;;
42834;SDS011;29335;50.526;30.458;2022-08-21T14:37:41;18.10;;;4.68;;
42834;SDS011;29335;50.526;30.458;2022-08-21T14:40:07;25.48;;;5.78;;
42834;SDS011;29335;50.526;30.458;2022-08-21T14:42:34;21.08;;;4.60;;
42834;SDS011;29335;50.526;30.458;2022-08-21T14:45:01;25.48;;;5.70;;
42834;SDS011;29335;50.526;30.458;2022-08-21T14:47:30;16.50;;;4.60;;
42834;SDS011;29335;50.526;30.458;2022-08-21T14:49:55;21.95;;;4.72;;
42834;SDS011;29335;50.526;30.458;2022-08-21T14:52:21;20.38;;;4.68;;
42834;SDS011;29335;50.526;30.458;2022-08-21T14:54:48;18.63;;;4.75;;
42834;SDS011;29335;50.526;30.458;2022-08-21T14:57:14;21.95;;;4.28;;
42834;SDS011;29335;50.526;30.458;2022-08-21T14:59:40;23.98;;;5.00;;
42834;SDS011;29335;50.526;30.458;2022-08-21T15:02:07;18.73;;;4.90;;
42834;SDS011;29335;50.526;30.458;2022-08-21T15:04:33;22.42;;;5.10;;
42834;SDS011;29335;50.526;30.458;2022-08-21T15:07:00;19.27;;;4.93;;
42834;SDS011;29335;50.526;30.458;2022-08-21T15:09:25;22.42;;;4.95;;
42834;SDS011;29335;50.526;30.458;2022-08-21T15:11:55;17.40;;;4.47;;
42834;SDS011;29335;50.526;30.458;2022-08-21T15:14:25;23.20;;;5.55;;
42834;SDS011;29335;50.526;30.458;2022-08-21T15:16:52;23.95;;;5.25;;
42834;SDS011;29335;50.526;30.458;2022-08-21T15:19:18;17.42;;;3.92;;
42834;SDS011;29335;50.526;30.458;2022-08-21T15:21:44;20.38;;;4.68;;
42834;SDS011;29335;50.526;30.458;2022-08-21T15:24:09;21.45;;;4.97;;
42834;SDS011;29335;50.526;30.458;2022-08-21T15:26:35;19.52;;;4.57;;
42834;SDS011;29335;50.526;30.458;2022-08-21T15:29:01;23.88;;;5.47;;
42834;SDS011;29335;50.526;30.458;2022-08-21T15:31:27;23.15;;;4.55;;
42834;SDS011;29335;50.526;30.458;2022-08-21T15:33:53;21.38;;;4.38;;
42834;SDS011;29335;50.526;30.458;2022-08-21T15:36:19;20.58;;;4.72;;
42834;SDS011;29335;50.526;30.458;2022-08-21T15:38:44;26.77;;;5.40;;
42834;SDS011;29335;50.526;30.458;2022-08-21T15:41:10;25.45;;;4.95;;
42834;SDS011;29335;50.526;30.458;2022-08-21T15:43:50;22.58;;;4.97;;
42834;SDS011;29335;50.526;30.458;2022-08-21T15:46:18;20.02;;;4.72;;
42834;SDS011;29335;50.526;30.458;2022-08-21T15:48:45;26.00;;;4.90;;
42834;SDS011;29335;50.526;30.458;2022-08-21T15:51:11;23.67;;;4.18;;
42834;SDS011;29335;50.526;30.458;2022-08-21T15:53:38;20.30;;;4.78;;
42834;SDS011;29335;50.526;30.458;2022-08-21T15:56:50;22.42;;;5.03;;
42834;SDS011;29335;50.526;30.458;2022-08-21T15:58:53;22.55;;;5.32;;
42834;SDS011;29335;50.526;30.458;2022-08-21T16:01:24;30.40;;;5.43;;
42834;SDS011;29335;50.526;30.458;2022-08-21T16:03:50;19.52;;;4.78;;
42834;SDS011;29335;50.526;30.458;2022-08-21T16:06:18;19.95;;;4.57;;
42834;SDS011;29335;50.526;30.458;2022-08-21T16:08:43;28.52;;;5.03;;
42834;SDS011;29335;50.526;30.458;2022-08-21T16:11:10;18.85;;;5.00;;
42834;SDS011;29335;50.526;30.458;2022-08-21T16:13:40;23.00;;;4.60;;